sensor_id;sensor_type;location;lat;lon;timestamp;temperature;humidity
27759;DHT22;15148;48.972;12.794;2023-05-15T00:01:07;10.40;99.90
27759;DHT22;15148;48.972;12.794;2023-05-15T00:06:09;10.40;99.90
27759;DHT22;15148;48.972;12.794;2023-05-15T00:11:11;10.40;99.90
27759;DHT22;15148;48.972;12.794;2023-05-15T00:16:13;10.40;99.90
27759;DHT22;15148;48.972;12.794;2023-05-15T00:21:14;10.30;99.90
27759;DHT22;15148;48.972;12.794;2023-05-15T00:26:17;10.20;99.90
27759;DHT22;15148;48.972;12.794;2023-05-15T00:31:19;10.30;99.90
27759;DHT22;15148;48.972;12.794;2023-05-15T00:36:21;10.30;99.90
27759;DHT22;15148;48.972;12.794;2023-05-15T00:41:26;10.30;99.90
27759;DHT22;15148;48.972;12.794;2023-05-15T00:46:30;10.20;99.90
27759;DHT22;15148;48.972;12.794;2023-05-15T00:51:33;10.10;99.90
27759;DHT22;15148;48.972;12.794;2023-05-15T00:56:36;10.10;99.90
27759;DHT22;15148;48.972;12.794;2023-05-15T01:01:38;10.00;99.90
27759;DHT22;15148;48.972;12.794;2023-05-15T01:06:39;10.00;99.90
27759;DHT22;15148;48.972;12.794;2023-05-15T01:11:41;10.00;99.90
27759;DHT22;15148;48.972;12.794;2023-05-15T01:16:45;10.00;99.90
27759;DHT22;15148;48.972;12.794;2023-05-15T01:22:01;10.00;99.90
27759;DHT22;15148;48.972;12.794;2023-05-15T01:27:40;9.90;99.90
27759;DHT22;15148;48.972;12.794;2023-05-15T01:33:02;10.00;99.90
27759;DHT22;15148;48.972;12.794;2023-05-15T01:38:21;9.90;99.90
27759;DHT22;15148;48.972;12.794;2023-05-15T01:43:27;9.90;99.90
27759;DHT22;15148;48.972;12.794;2023-05-15T01:48:32;9.90;99.90
27759;DHT22;15148;48.972;12.794;2023-05-15T01:53:37;9.70;99.90
27759;DHT22;15148;48.972;12.794;2023-05-15T01:58:41;9.70;99.90
27759;DHT22;15148;48.972;12.794;2023-05-15T02:03:45;9.70;99.90
27759;DHT22;15148;48.972;12.794;2023-05-15T02:08:48;9.80;99.90
27759;DHT22;15148;48.972;12.794;2023-05-15T02:13:51;9.80;99.90
27759;DHT22;15148;48.972;12.794;2023-05-15T02:18:53;9.80;99.90
27759;DHT22;15148;48.972;12.794;2023-05-15T02:23:55;9.70;99.90
27759;DHT22;15148;48.972;12.794;2023-05-15T02:29:17;9.80;99.90
27759;DHT22;15148;48.972;12.794;2023-05-15T02:39:44;9.70;99.90
27759;DHT22;15148;48.972;12.794;2023-05-15T02:44:48;9.70;99.90
27759;DHT22;15148;48.972;12.794;2023-05-15T02:49:51;9.70;99.90
27759;DHT22;15148;48.972;12.794;2023-05-15T02:54:53;9.70;99.90
27759;DHT22;15148;48.972;12.794;2023-05-15T02:59:55;9.70;99.90
27759;DHT22;15148;48.972;12.794;2023-05-15T03:05:00;9.60;99.90
27759;DHT22;15148;48.972;12.794;2023-05-15T03:10:02;9.40;99.90
27759;DHT22;15148;48.972;12.794;2023-05-15T03:15:05;9.50;99.90
27759;DHT22;15148;48.972;12.794;2023-05-15T03:20:07;9.60;99.90
27759;DHT22;15148;48.972;12.794;2023-05-15T03:25:10;9.70;99.90
27759;DHT22;15148;48.972;12.794;2023-05-15T03:30:12;9.70;99.90
27759;DHT22;15148;48.972;12.794;2023-05-15T03:35:14;9.70;99.90
27759;DHT22;15148;48.972;12.794;2023-05-15T03:40:17;9.70;99.90
27759;DHT22;15148;48.972;12.794;2023-05-15T03:45:19;9.70;99.90
27759;DHT22;15148;48.972;12.794;2023-05-15T03:50:22;9.70;99.90
27759;DHT22;15148;48.972;12.794;2023-05-15T03:55:24;9.60;99.90
27759;DHT22;15148;48.972;12.794;2023-05-15T04:00:26;9.70;99.90
27759;DHT22;15148;48.972;12.794;2023-05-15T04:05:28;9.70;99.90
27759;DHT22;15148;48.972;12.794;2023-05-15T04:10:30;9.70;99.90
27759;DHT22;15148;48.972;12.794;2023-05-15T04:15:33;9.70;99.90
27759;DHT22;15148;48.972;12.794;2023-05-15T04:20:35;9.80;99.90
27759;DHT22;15148;48.972;12.794;2023-05-15T04:25:37;9.80;99.90
27759;DHT22;15148;48.972;12.794;2023-05-15T04:30:39;9.90;99.90
27759;DHT22;15148;48.972;12.794;2023-05-15T04:35:42;9.90;99.90
27759;DHT22;15148;48.972;12.794;2023-05-15T04:40:44;9.90;99.90
27759;DHT22;15148;48.972;12.794;2023-05-15T04:45:46;9.90;99.90
27759;DHT22;15148;48.972;12.794;2023-05-15T04:50:48;9.90;99.90
27759;DHT22;15148;48.972;12.794;2023-05-15T04:55:49;9.90;99.90
27759;DHT22;15148;48.972;12.794;2023-05-15T05:00:52;10.00;99.90
27759;DHT22;15148;48.972;12.794;2023-05-15T05:05:54;10.00;99.90
27759;DHT22;15148;48.972;12.794;2023-05-15T05:10:56;10.00;99.90
27759;DHT22;15148;48.972;12.794;2023-05-15T05:15:58;10.10;99.90
27759;DHT22;15148;48.972;12.794;2023-05-15T05:21:00;10.10;99.90
27759;DHT22;15148;48.972;12.794;2023-05-15T05:26:02;10.20;99.90
27759;DHT22;15148;48.972;12.794;2023-05-15T05:31:06;10.20;99.90
27759;DHT22;15148;48.972;12.794;2023-05-15T05:36:09;10.20;99.90
27759;DHT22;15148;48.972;12.794;2023-05-15T05:41:12;10.20;99.90
27759;DHT22;15148;48.972;12.794;2023-05-15T05:46:13;10.20;99.90
27759;DHT22;15148;48.972;12.794;2023-05-15T05:51:15;10.30;99.90
27759;DHT22;15148;48.972;12.794;2023-05-15T05:56:17;10.30;99.90
27759;DHT22;15148;48.972;12.794;2023-05-15T06:01:19;10.30;99.90
27759;DHT22;15148;48.972;12.794;2023-05-15T06:06:21;10.50;99.90
27759;DHT22;15148;48.972;12.794;2023-05-15T06:11:23;10.60;99.90
27759;DHT22;15148;48.972;12.794;2023-05-15T06:16:26;10.70;99.90
27759;DHT22;15148;48.972;12.794;2023-05-15T06:21:28;10.80;99.90
27759;DHT22;15148;48.972;12.794;2023-05-15T06:26:30;10.90;99.90
27759;DHT22;15148;48.972;12.794;2023-05-15T06:31:31;11.00;99.90
27759;DHT22;15148;48.972;12.794;2023-05-15T06:36:33;11.10;99.90
27759;DHT22;15148;48.972;12.794;2023-05-15T06:41:36;11.20;99.90
27759;DHT22;15148;48.972;12.794;2023-05-15T06:46:38;11.30;99.90
27759;DHT22;15148;48.972;12.794;2023-05-15T06:51:40;11.50;99.90
27759;DHT22;15148;48.972;12.794;2023-05-15T06:56:42;11.60;99.90
27759;DHT22;15148;48.972;12.794;2023-05-15T07:01:44;11.80;99.90
27759;DHT22;15148;48.972;12.794;2023-05-15T07:06:46;11.80;99.90
27759;DHT22;15148;48.972;12.794;2023-05-15T07:11:48;11.80;99.90
27759;DHT22;15148;48.972;12.794;2023-05-15T07:16:49;11.80;99.90
27759;DHT22;15148;48.972;12.794;2023-05-15T07:21:51;11.80;99.90
27759;DHT22;15148;48.972;12.794;2023-05-15T07:26:53;11.80;99.90
27759;DHT22;15148;48.972;12.794;2023-05-15T07:31:59;11.80;99.90
27759;DHT22;15148;48.972;12.794;2023-05-15T07:37:01;11.90;99.90
27759;DHT22;15148;48.972;12.794;2023-05-15T07:42:03;11.90;99.90
27759;DHT22;15148;48.972;12.794;2023-05-15T07:47:05;11.90;99.90
27759;DHT22;15148;48.972;12.794;2023-05-15T07:52:07;11.90;99.90
27759;DHT22;15148;48.972;12.794;2023-05-15T07:57:09;11.90;99.90
27759;DHT22;15148;48.972;12.794;2023-05-15T08:02:11;11.90;99.90
27759;DHT22;15148;48.972;12.794;2023-05-15T08:07:13;12.10;99.90
27759;DHT22;15148;48.972;12.794;2023-05-15T08:12:20;12.20;99.90
27759;DHT22;15148;48.972;12.794;2023-05-15T08:17:23;12.50;99.90
27759;DHT22;15148;48.972;12.794;2023-05-15T08:22:25;12.90;99.90
27759;DHT22;15148;48.972;12.794;2023-05-15T08:27:27;13.20;99.90
27759;DHT22;15148;48.972;12.794;2023-05-15T08:32:29;13.50;99.90
27759;DHT22;15148;48.972;12.794;2023-05-15T08:37:31;13.70;99.90
27759;DHT22;15148;48.972;12.794;2023-05-15T08:42:47;13.90;99.90
27759;DHT22;15148;48.972;12.794;2023-05-15T08:47:50;14.10;99.90
27759;DHT22;15148;48.972;12.794;2023-05-15T08:52:52;14.20;99.90
27759;DHT22;15148;48.972;12.794;2023-05-15T08:57:59;14.20;99.90
27759;DHT22;15148;48.972;12.794;2023-05-15T09:03:01;14.10;99.90
27759;DHT22;15148;48.972;12.794;2023-05-15T09:08:03;14.50;99.90
27759;DHT22;15148;48.972;12.794;2023-05-15T09:13:06;14.90;99.90
27759;DHT22;15148;48.972;12.794;2023-05-15T09:18:08;15.00;99.90
27759;DHT22;15148;48.972;12.794;2023-05-15T09:23:24;14.90;99.90
27759;DHT22;15148;48.972;12.794;2023-05-15T09:28:31;14.70;99.90
27759;DHT22;15148;48.972;12.794;2023-05-15T09:33:35;14.70;99.90
27759;DHT22;15148;48.972;12.794;2023-05-15T09:38:41;14.70;99.90
27759;DHT22;15148;48.972;12.794;2023-05-15T09:43:43;14.70;99.90
27759;DHT22;15148;48.972;12.794;2023-05-15T09:48:45;14.80;99.90
27759;DHT22;15148;48.972;12.794;2023-05-15T09:53:49;15.20;99.90
27759;DHT22;15148;48.972;12.794;2023-05-15T09:58:52;15.20;99.90
27759;DHT22;15148;48.972;12.794;2023-05-15T10:04:00;15.20;99.90
27759;DHT22;15148;48.972;12.794;2023-05-15T10:09:02;15.30;99.90
27759;DHT22;15148;48.972;12.794;2023-05-15T10:14:07;15.70;99.90
27759;DHT22;15148;48.972;12.794;2023-05-15T10:19:10;15.70;99.90
27759;DHT22;15148;48.972;12.794;2023-05-15T10:24:12;15.90;99.90
27759;DHT22;15148;48.972;12.794;2023-05-15T10:29:17;16.20;99.90
27759;DHT22;15148;48.972;12.794;2023-05-15T10:34:22;16.50;99.90
27759;DHT22;15148;48.972;12.794;2023-05-15T10:39:26;16.80;99.90
27759;DHT22;15148;48.972;12.794;2023-05-15T10:44:29;16.90;99.90
27759;DHT22;15148;48.972;12.794;2023-05-15T10:49:31;17.00;99.90
27759;DHT22;15148;48.972;12.794;2023-05-15T10:54:34;16.70;99.90
27759;DHT22;15148;48.972;12.794;2023-05-15T10:59:36;16.70;99.90
27759;DHT22;15148;48.972;12.794;2023-05-15T11:04:38;16.90;99.90
27759;DHT22;15148;48.972;12.794;2023-05-15T11:09:40;16.70;99.90
27759;DHT22;15148;48.972;12.794;2023-05-15T11:15:16;16.60;99.90
27759;DHT22;15148;48.972;12.794;2023-05-15T11:20:05;16.70;99.90
27759;DHT22;15148;48.972;12.794;2023-05-15T11:25:08;16.90;99.90
27759;DHT22;15148;48.972;12.794;2023-05-15T11:30:15;16.80;99.90
27759;DHT22;15148;48.972;12.794;2023-05-15T11:35:33;16.80;99.90
27759;DHT22;15148;48.972;12.794;2023-05-15T11:40:50;16.70;99.90
27759;DHT22;15148;48.972;12.794;2023-05-15T11:46:08;16.50;99.90
27759;DHT22;15148;48.972;12.794;2023-05-15T11:51:23;16.40;99.90
27759;DHT22;15148;48.972;12.794;2023-05-15T11:56:27;16.30;99.90
27759;DHT22;15148;48.972;12.794;2023-05-15T12:01:38;16.30;99.90
27759;DHT22;15148;48.972;12.794;2023-05-15T12:06:41;16.40;99.90
27759;DHT22;15148;48.972;12.794;2023-05-15T12:11:53;16.20;99.90
27759;DHT22;15148;48.972;12.794;2023-05-15T12:16:59;16.00;99.90
27759;DHT22;15148;48.972;12.794;2023-05-15T12:22:04;15.90;99.90
27759;DHT22;15148;48.972;12.794;2023-05-15T12:27:07;16.00;99.90
27759;DHT22;15148;48.972;12.794;2023-05-15T12:32:10;16.00;99.90
27759;DHT22;15148;48.972;12.794;2023-05-15T12:37:12;16.00;99.90
27759;DHT22;15148;48.972;12.794;2023-05-15T12:42:14;16.00;99.90
27759;DHT22;15148;48.972;12.794;2023-05-15T12:47:21;15.90;99.90
27759;DHT22;15148;48.972;12.794;2023-05-15T12:52:27;15.90;99.90
27759;DHT22;15148;48.972;12.794;2023-05-15T12:57:29;16.10;99.90
27759;DHT22;15148;48.972;12.794;2023-05-15T13:02:31;16.30;99.90
27759;DHT22;15148;48.972;12.794;2023-05-15T13:07:33;16.50;99.90
27759;DHT22;15148;48.972;12.794;2023-05-15T13:12:42;16.80;99.90
27759;DHT22;15148;48.972;12.794;2023-05-15T13:17:45;16.80;99.90
27759;DHT22;15148;48.972;12.794;2023-05-15T13:22:47;16.70;99.90
27759;DHT22;15148;48.972;12.794;2023-05-15T13:27:49;16.30;99.90
27759;DHT22;15148;48.972;12.794;2023-05-15T13:32:51;16.00;99.90
27759;DHT22;15148;48.972;12.794;2023-05-15T13:37:56;15.90;99.90
27759;DHT22;15148;48.972;12.794;2023-05-15T13:42:58;15.90;99.90
27759;DHT22;15148;48.972;12.794;2023-05-15T13:48:00;15.80;99.90
27759;DHT22;15148;48.972;12.794;2023-05-15T13:53:02;16.00;99.90
27759;DHT22;15148;48.972;12.794;2023-05-15T13:58:04;16.10;99.90
27759;DHT22;15148;48.972;12.794;2023-05-15T14:03:06;16.10;99.90
27759;DHT22;15148;48.972;12.794;2023-05-15T14:08:08;16.00;99.90
27759;DHT22;15148;48.972;12.794;2023-05-15T14:13:10;15.90;99.90
27759;DHT22;15148;48.972;12.794;2023-05-15T14:18:11;15.70;99.90
27759;DHT22;15148;48.972;12.794;2023-05-15T14:23:13;15.50;99.90
27759;DHT22;15148;48.972;12.794;2023-05-15T14:28:16;15.40;99.90
27759;DHT22;15148;48.972;12.794;2023-05-15T14:33:18;15.10;99.90
27759;DHT22;15148;48.972;12.794;2023-05-15T14:38:20;14.90;99.90
27759;DHT22;15148;48.972;12.794;2023-05-15T14:43:22;14.80;99.90
27759;DHT22;15148;48.972;12.794;2023-05-15T14:48:27;14.90;99.90
27759;DHT22;15148;48.972;12.794;2023-05-15T14:53:30;15.20;99.90
27759;DHT22;15148;48.972;12.794;2023-05-15T14:58:32;15.20;99.90
27759;DHT22;15148;48.972;12.794;2023-05-15T15:03:34;15.40;99.90
27759;DHT22;15148;48.972;12.794;2023-05-15T15:08:36;15.50;99.90
27759;DHT22;15148;48.972;12.794;2023-05-15T15:13:38;15.40;99.90
27759;DHT22;15148;48.972;12.794;2023-05-15T15:18:40;15.10;99.90
27759;DHT22;15148;48.972;12.794;2023-05-15T15:23:42;14.70;99.90
27759;DHT22;15148;48.972;12.794;2023-05-15T15:28:44;14.60;99.90
27759;DHT22;15148;48.972;12.794;2023-05-15T15:33:46;14.50;99.90
27759;DHT22;15148;48.972;12.794;2023-05-15T15:38:48;14.50;99.90
27759;DHT22;15148;48.972;12.794;2023-05-15T15:43:50;14.50;99.90
27759;DHT22;15148;48.972;12.794;2023-05-15T15:48:52;14.60;99.90
27759;DHT22;15148;48.972;12.794;2023-05-15T15:53:53;14.60;99.90
27759;DHT22;15148;48.972;12.794;2023-05-15T15:58:55;14.30;99.90
27759;DHT22;15148;48.972;12.794;2023-05-15T16:03:57;14.20;99.90
27759;DHT22;15148;48.972;12.794;2023-05-15T16:08:59;14.20;99.90
27759;DHT22;15148;48.972;12.794;2023-05-15T16:14:01;14.30;99.90
27759;DHT22;15148;48.972;12.794;2023-05-15T16:19:03;14.40;99.90
27759;DHT22;15148;48.972;12.794;2023-05-15T16:24:05;14.30;99.90
27759;DHT22;15148;48.972;12.794;2023-05-15T16:29:07;14.40;99.90
27759;DHT22;15148;48.972;12.794;2023-05-15T16:34:09;14.50;99.90
27759;DHT22;15148;48.972;12.794;2023-05-15T16:39:11;14.40;99.90
27759;DHT22;15148;48.972;12.794;2023-05-15T16:44:13;14.40;99.90
27759;DHT22;15148;48.972;12.794;2023-05-15T16:49:15;14.20;99.90
27759;DHT22;15148;48.972;12.794;2023-05-15T16:54:17;13.80;99.90
27759;DHT22;15148;48.972;12.794;2023-05-15T16:59:19;13.80;99.90
27759;DHT22;15148;48.972;12.794;2023-05-15T17:04:20;13.70;99.90
27759;DHT22;15148;48.972;12.794;2023-05-15T17:09:22;13.70;99.90
27759;DHT22;15148;48.972;12.794;2023-05-15T17:14:24;13.70;99.90
27759;DHT22;15148;48.972;12.794;2023-05-15T17:19:26;13.70;99.90
27759;DHT22;15148;48.972;12.794;2023-05-15T17:24:28;13.60;99.90
27759;DHT22;15148;48.972;12.794;2023-05-15T17:29:49;13.50;99.90
27759;DHT22;15148;48.972;12.794;2023-05-15T17:34:51;13.40;99.90
27759;DHT22;15148;48.972;12.794;2023-05-15T17:39:53;13.40;99.90
27759;DHT22;15148;48.972;12.794;2023-05-15T17:44:55;13.30;99.90
27759;DHT22;15148;48.972;12.794;2023-05-15T17:49:57;13.30;99.90
27759;DHT22;15148;48.972;12.794;2023-05-15T17:54:59;13.20;99.90
27759;DHT22;15148;48.972;12.794;2023-05-15T18:00:01;13.30;99.90
27759;DHT22;15148;48.972;12.794;2023-05-15T18:05:12;13.10;99.90
27759;DHT22;15148;48.972;12.794;2023-05-15T18:10:14;13.20;99.90
27759;DHT22;15148;48.972;12.794;2023-05-15T18:15:16;13.20;99.90
27759;DHT22;15148;48.972;12.794;2023-05-15T18:20:18;13.20;99.90
27759;DHT22;15148;48.972;12.794;2023-05-15T18:25:19;13.10;99.90
27759;DHT22;15148;48.972;12.794;2023-05-15T18:30:21;13.10;99.90
27759;DHT22;15148;48.972;12.794;2023-05-15T18:35:24;13.00;99.90
27759;DHT22;15148;48.972;12.794;2023-05-15T18:40:26;12.90;99.90
27759;DHT22;15148;48.972;12.794;2023-05-15T18:45:28;12.80;99.90
27759;DHT22;15148;48.972;12.794;2023-05-15T18:50:29;12.70;99.90
27759;DHT22;15148;48.972;12.794;2023-05-15T18:55:31;12.50;99.90
27759;DHT22;15148;48.972;12.794;2023-05-15T19:00:33;12.50;99.90
27759;DHT22;15148;48.972;12.794;2023-05-15T19:05:39;12.40;99.90
27759;DHT22;15148;48.972;12.794;2023-05-15T19:10:46;12.40;99.90
27759;DHT22;15148;48.972;12.794;2023-05-15T19:15:52;12.30;99.90
27759;DHT22;15148;48.972;12.794;2023-05-15T19:20:54;12.30;99.90
27759;DHT22;15148;48.972;12.794;2023-05-15T19:25:57;12.30;99.90
27759;DHT22;15148;48.972;12.794;2023-05-15T19:30:59;12.00;99.90
27759;DHT22;15148;48.972;12.794;2023-05-15T19:36:01;11.90;99.90
27759;DHT22;15148;48.972;12.794;2023-05-15T19:41:02;11.80;99.90
27759;DHT22;15148;48.972;12.794;2023-05-15T19:46:05;11.70;99.90
27759;DHT22;15148;48.972;12.794;2023-05-15T19:51:07;11.60;99.90
27759;DHT22;15148;48.972;12.794;2023-05-15T19:56:09;11.60;99.90
27759;DHT22;15148;48.972;12.794;2023-05-15T20:01:11;11.60;99.90
27759;DHT22;15148;48.972;12.794;2023-05-15T20:06:13;11.40;99.90
27759;DHT22;15148;48.972;12.794;2023-05-15T20:11:14;11.40;99.90
27759;DHT22;15148;48.972;12.794;2023-05-15T20:16:16;11.30;99.90
27759;DHT22;15148;48.972;12.794;2023-05-15T20:21:19;11.20;99.90
27759;DHT22;15148;48.972;12.794;2023-05-15T20:26:21;11.10;99.90
27759;DHT22;15148;48.972;12.794;2023-05-15T20:31:23;11.10;99.90
27759;DHT22;15148;48.972;12.794;2023-05-15T20:36:25;11.00;99.90
27759;DHT22;15148;48.972;12.794;2023-05-15T20:41:27;10.90;99.90
27759;DHT22;15148;48.972;12.794;2023-05-15T20:46:29;10.80;99.90
27759;DHT22;15148;48.972;12.794;2023-05-15T20:51:32;10.80;99.90
27759;DHT22;15148;48.972;12.794;2023-05-15T20:56:34;10.60;99.90
27759;DHT22;15148;48.972;12.794;2023-05-15T21:01:36;10.60;99.90
27759;DHT22;15148;48.972;12.794;2023-05-15T21:06:38;10.40;99.90
27759;DHT22;15148;48.972;12.794;2023-05-15T21:11:40;10.40;99.90
27759;DHT22;15148;48.972;12.794;2023-05-15T21:16:41;10.40;99.90
27759;DHT22;15148;48.972;12.794;2023-05-15T21:21:43;10.40;99.90
27759;DHT22;15148;48.972;12.794;2023-05-15T21:26:45;10.30;99.90
27759;DHT22;15148;48.972;12.794;2023-05-15T21:31:47;10.30;99.90
27759;DHT22;15148;48.972;12.794;2023-05-15T21:36:49;10.30;99.90
27759;DHT22;15148;48.972;12.794;2023-05-15T21:41:51;10.20;99.90
27759;DHT22;15148;48.972;12.794;2023-05-15T21:46:53;10.20;99.90
27759;DHT22;15148;48.972;12.794;2023-05-15T21:51:55;10.10;99.90
27759;DHT22;15148;48.972;12.794;2023-05-15T21:56:56;10.00;99.90
27759;DHT22;15148;48.972;12.794;2023-05-15T22:01:58;10.00;99.90
27759;DHT22;15148;48.972;12.794;2023-05-15T22:07:00;10.10;99.90
27759;DHT22;15148;48.972;12.794;2023-05-15T22:12:02;10.00;99.90
27759;DHT22;15148;48.972;12.794;2023-05-15T22:17:04;9.80;99.90
27759;DHT22;15148;48.972;12.794;2023-05-15T22:22:06;9.80;99.90
27759;DHT22;15148;48.972;12.794;2023-05-15T22:27:08;9.80;99.90
27759;DHT22;15148;48.972;12.794;2023-05-15T22:32:10;9.80;99.90
27759;DHT22;15148;48.972;12.794;2023-05-15T22:37:12;9.80;99.90
27759;DHT22;15148;48.972;12.794;2023-05-15T22:42:14;9.60;99.90
27759;DHT22;15148;48.972;12.794;2023-05-15T22:47:15;9.60;99.90
27759;DHT22;15148;48.972;12.794;2023-05-15T22:52:17;9.70;99.90
27759;DHT22;15148;48.972;12.794;2023-05-15T22:57:19;9.70;99.90
27759;DHT22;15148;48.972;12.794;2023-05-15T23:02:21;9.70;99.90
27759;DHT22;15148;48.972;12.794;2023-05-15T23:07:23;9.70;99.90
27759;DHT22;15148;48.972;12.794;2023-05-15T23:12:25;9.50;99.90
27759;DHT22;15148;48.972;12.794;2023-05-15T23:17:26;9.50;99.90
27759;DHT22;15148;48.972;12.794;2023-05-15T23:22:28;9.50;99.90
27759;DHT22;15148;48.972;12.794;2023-05-15T23:27:30;9.40;99.90
27759;DHT22;15148;48.972;12.794;2023-05-15T23:32:32;9.40;99.90
27759;DHT22;15148;48.972;12.794;2023-05-15T23:37:34;9.60;99.90
27759;DHT22;15148;48.972;12.794;2023-05-15T23:42:36;9.50;99.90
27759;DHT22;15148;48.972;12.794;2023-05-15T23:47:38;9.50;99.90
27759;DHT22;15148;48.972;12.794;2023-05-15T23:52:41;9.50;99.90
27759;DHT22;15148;48.972;12.794;2023-05-15T23:57:42;9.50;99.90
